Impacts TAF Board
For situational awareness. Not to be used for flight planning purposes.
IDs:

KJFK - New York/Kennedy Int, NY, US

Issued at 0237 UTC 23 Oct 2018
Updated at 0258 UTC 23 Oct 2018
Potential Impact None Slight Moderate High
Time<<23/15Z 23/16Z 23/17Z 23/18Z 23/19Z 23/20Z 23/21Z 23/22Z 23/23Z 24/00Z 24/01Z 24/02Z 24/03Z>>
Type PRVL PRVL PRVL PRVL PRVL PRVL PRVL PRVL PRVL PRVL PRVL PRVL PRVL
VIS >6 >6 >6 >6 >6 >6 >6 >6 >6 >6 >6 >6 >6
CIG 50 50 50 50 50 50 50 60 60 60 200 200 200
Cover BKN BKN BKN BKN BKN BKN BKN BKN BKN BKN BKN BKN BKN
FltCat VFR VFR VFR VFR VFR VFR VFR VFR VFR VFR VFR VFR VFR
WX -- -- -- VCSH VCSH VCSH VCSH VCSH VCSH VCSH -- -- --
WDir 220 220 220 240 240 240 240 260 260 260 290 290 290
WSpd 5 5 5 14 14 14 14 16 16 16 17 17 17
WGst -- -- -- -- -- -- -- 25 25 25 29 29 29
Raw TAF
KJFK 230237Z 2303/2406 22009KT P6SM FEW050 BKN250
  FM230600 22005KT P6SM BKN050
  FM231800 24014KT P6SM VCSH BKN050
  FM232200 26016G25KT P6SM VCSH BKN060
  FM240100 29017G29KT P6SM FEW060 BKN200


METAR Board
Radar Display
Forecast Discussion
For situational awareness. Not to be used for flight planning purposes.